Airfield :
LOGIN :

Register | Disclaimer

   EN    FR    IT 

 










Legend :    VFR   Marginal VFR   IFR   Intensive IFR   Very Intensive IFR
Visi :
Ceiling :
>= 8 km
>= 3000ft
5 to 8 km
1000 to 3000 ft
1500m to 5 km
500 to 1000 ft
800 to 1500m
200 to 500 ft
< 800m
< 200 ft
Symbols :   Thunderstorms  Fog  Heavy snow  Heavy precipitations  Wind > 20 kt
SIGMETs :     Misc.  Thunderstorms  Icing  Turbulence  Mountain Waves  Volcanic Ashes






- Airport Elevation : 16 ft
- IATA code : SDR


LEXJ - Santander Cantabria

CURRENT METAR :
  • 262330Z AUTO 21005KT 6000 NCD 15/14 Q1028

EXPIRED METARs :
  • 262300Z AUTO VRB02KT 8000 NCD 15/13 Q1028
  • 262230Z AUTO 20003KT 170V240 6000 NCD 16/13 Q1028
  • 262200Z AUTO VRB01KT 7000 NCD 16/14 Q1028
  • 262130Z AUTO 00000KT 8000 NCD 16/14 Q1028
  • 262100Z AUTO 00000KT 7000 NCD 17/15 Q1028

TAF TAF LEXJ
Valid from the 26 at 21:00 until the 27 at 21:00 UTC


262000Z 2621/2721 VRB05KT CAVOK TX24/2712Z TN12/2705Z
PROB30
TEMPO 2621/2624 3000 BR
TEMPO 2711/2718 05010KT



MET'MAP, your aeronautical weather chart ! - Copyright ORBIFLY December 2007 - Disclaimer

ORBIFLY MET'MAP TEAM :

Programming & Development : Alexandra Zaïnal
Concept & original design : Baudouin d'Aumeries
Assistance for programming : Marc-Olivier Méhu
Technical & hardware support : Manuel Goepfert

Contact : metmap@orbifly.com




SOURCES & CREDITS :

   NOAA